Stuttgart, Germany
Current Conditions -  °F | °C
As of 2:50 PM on Thursday 23 Oct 2014 (Local Time) from EDDS Reporting Station
Broken Clouds Broken Clouds  
Wind Chill: 50°   Ceiling: 3700
Heat Index: 50°   Visibility: 6mi
Dew Point: 41°   Wind: 9mph
Humidity: 71%   Direction: 310°NW
Pressure: 30.24"   Gusts: NA
Location:  48.78°N, 9.18°E
Report Text: EDDS 231250Z 31008KT 9999 FEW027 BKN037 10/05 Q1024 NOSIG
Loading
Personal Weather Stations






























Interactive Weather Map
Tropical Storm Tracking
New forecast layout! Learn more

10-Day Weather Forecast

Advertisements
Track Severe Weather on mobile